BOX545 EBBR-EDDF
Flight info
| Callsign | BOX545 |
|---|---|
| Flight time | 0h 40m |
| Altitude | 23000 |
| Route | SPI T180 NIVNU T847 IMCOM IMCOM1A |
| Aircraft | B77L/H-SDE2E3GHIJ4J5M1P2RWXYZ/LB1D1 |
Departure
| Time | 2026-05-04 13:16 |
|---|---|
| Airport | Brussels Airport (EBBR) |
Arrival
| Time | 2026-05-04 13:56 |
|---|---|
| Airport | Frankfurt Main Airport (EDDF) |
| Time | Latitude | Longitude | Altitude | Speed | Heading |
|---|---|---|---|---|---|
| 2026-05-04 12:26 | 50.90371 | 4.46071 | 140 ft | 0 kts | 335° |
| 2026-05-04 13:03 | 50.90370 | 4.46072 | 139 ft | 2 kts | 335° |
| 2026-05-04 13:03 | 50.90346 | 4.46088 | 140 ft | 4 kts | 340° |
| 2026-05-04 13:04 | 50.90320 | 4.46101 | 140 ft | 4 kts | 347° |
| 2026-05-04 13:04 | 50.90294 | 4.46107 | 140 ft | 4 kts | 7° |
| 2026-05-04 13:04 | 50.90273 | 4.46094 | 140 ft | 3 kts | 62° |
| 2026-05-04 13:04 | 50.90272 | 4.46091 | 140 ft | 1 kts | 65° |
| 2026-05-04 13:07 | 50.90280 | 4.46116 | 140 ft | 7 kts | 65° |
| 2026-05-04 13:08 | 50.90302 | 4.46196 | 139 ft | 8 kts | 65° |
| 2026-05-04 13:08 | 50.90328 | 4.46284 | 138 ft | 9 kts | 65° |
| 2026-05-04 13:08 | 50.90354 | 4.46381 | 137 ft | 10 kts | 74° |
| 2026-05-04 13:08 | 50.90355 | 4.46492 | 136 ft | 11 kts | 98° |
| 2026-05-04 13:09 | 50.90328 | 4.46604 | 129 ft | 11 kts | 114° |
| 2026-05-04 13:09 | 50.90293 | 4.46728 | 133 ft | 13 kts | 116° |
| 2026-05-04 13:09 | 50.90252 | 4.46855 | 131 ft | 13 kts | 118° |
| 2026-05-04 13:09 | 50.90211 | 4.46986 | 126 ft | 13 kts | 117° |
| 2026-05-04 13:10 | 50.90173 | 4.47118 | 129 ft | 13 kts | 102° |
| 2026-05-04 13:10 | 50.90199 | 4.47257 | 125 ft | 14 kts | 64° |
| 2026-05-04 13:10 | 50.90241 | 4.47403 | 123 ft | 17 kts | 65° |
| 2026-05-04 13:10 | 50.90301 | 4.47609 | 124 ft | 22 kts | 65° |
| 2026-05-04 13:11 | 50.90364 | 4.47827 | 123 ft | 22 kts | 65° |
| 2026-05-04 13:11 | 50.90427 | 4.48048 | 120 ft | 22 kts | 65° |
| 2026-05-04 13:11 | 50.90491 | 4.48268 | 122 ft | 22 kts | 65° |
| 2026-05-04 13:11 | 50.90554 | 4.48488 | 122 ft | 22 kts | 65° |
| 2026-05-04 13:12 | 50.90618 | 4.48708 | 120 ft | 22 kts | 65° |
| 2026-05-04 13:12 | 50.90681 | 4.48929 | 120 ft | 22 kts | 65° |
| 2026-05-04 13:12 | 50.90745 | 4.49149 | 124 ft | 22 kts | 65° |
| 2026-05-04 13:12 | 50.90808 | 4.49370 | 124 ft | 22 kts | 65° |
| 2026-05-04 13:13 | 50.90872 | 4.49590 | 125 ft | 22 kts | 65° |
| 2026-05-04 13:13 | 50.90942 | 4.49805 | 123 ft | 22 kts | 49° |
| 2026-05-04 13:13 | 50.91069 | 4.49933 | 121 ft | 20 kts | 20° |
| 2026-05-04 13:13 | 50.91132 | 4.49904 | 119 ft | 11 kts | 283° |
| 2026-05-04 13:14 | 50.91121 | 4.49825 | 121 ft | 11 kts | 252° |
| 2026-05-04 13:14 | 50.91110 | 4.49786 | 119 ft | 0 kts | 244° |
| 2026-05-04 13:15 | 50.91065 | 4.49636 | 120 ft | 46 kts | 245° |
| 2026-05-04 13:15 | 50.90831 | 4.48819 | 123 ft | 115 kts | 245° |
| 2026-05-04 13:15 | 50.90418 | 4.47386 | 128 ft | 169 kts | 246° |
| 2026-05-04 13:15 | 50.89912 | 4.45620 | 474 ft | 180 kts | 245° |
| 2026-05-04 13:16 | 50.89413 | 4.43777 | 1023 ft | 181 kts | 256° |
| 2026-05-04 13:16 | 50.89517 | 4.41778 | 1378 ft | 191 kts | 298° |
| 2026-05-04 13:16 | 50.90202 | 4.40036 | 1922 ft | 189 kts | 299° |
| 2026-05-04 13:16 | 50.90817 | 4.38064 | 2159 ft | 209 kts | 294° |
| 2026-05-04 13:17 | 50.91409 | 4.35817 | 2353 ft | 233 kts | 285° |
| 2026-05-04 13:17 | 50.91332 | 4.33194 | 2708 ft | 250 kts | 246° |
| 2026-05-04 13:17 | 50.90226 | 4.31042 | 3321 ft | 257 kts | 218° |
| 2026-05-04 13:17 | 50.88771 | 4.29426 | 4137 ft | 255 kts | 216° |
| 2026-05-04 13:18 | 50.87376 | 4.27641 | 4776 ft | 263 kts | 221° |
| 2026-05-04 13:18 | 50.86004 | 4.25699 | 5456 ft | 267 kts | 222° |
| 2026-05-04 13:18 | 50.84625 | 4.23706 | 6190 ft | 270 kts | 223° |
| 2026-05-04 13:18 | 50.83185 | 4.21798 | 6844 ft | 272 kts | 210° |
| 2026-05-04 13:19 | 50.81369 | 4.21002 | 7451 ft | 276 kts | 178° |
| 2026-05-04 13:19 | 50.79516 | 4.21726 | 8154 ft | 275 kts | 156° |
| 2026-05-04 13:19 | 50.77745 | 4.22970 | 8754 ft | 282 kts | 156° |
| 2026-05-04 13:19 | 50.76012 | 4.24404 | 9354 ft | 284 kts | 141° |
| 2026-05-04 13:20 | 50.74817 | 4.26883 | 9967 ft | 289 kts | 111° |
| 2026-05-04 13:20 | 50.74460 | 4.30030 | 10448 ft | 298 kts | 91° |
| 2026-05-04 13:20 | 50.74492 | 4.33430 | 10611 ft | 321 kts | 89° |
| 2026-05-04 13:20 | 50.74557 | 4.37085 | 10797 ft | 345 kts | 89° |
| 2026-05-04 13:21 | 50.74630 | 4.40988 | 11028 ft | 366 kts | 89° |
| 2026-05-04 13:21 | 50.74700 | 4.45064 | 11687 ft | 376 kts | 89° |
| 2026-05-04 13:21 | 50.74761 | 4.49163 | 12636 ft | 382 kts | 89° |
| 2026-05-04 13:21 | 50.74824 | 4.53400 | 13448 ft | 389 kts | 89° |
| 2026-05-04 13:22 | 50.74877 | 4.57692 | 14254 ft | 393 kts | 90° |
| 2026-05-04 13:22 | 50.74924 | 4.62018 | 15041 ft | 394 kts | 90° |
| 2026-05-04 13:22 | 50.74623 | 4.66300 | 15656 ft | 396 kts | 108° |
| 2026-05-04 13:22 | 50.73635 | 4.70383 | 16276 ft | 404 kts | 114° |
| 2026-05-04 13:23 | 50.72586 | 4.74497 | 17211 ft | 403 kts | 112° |
| 2026-05-04 13:23 | 50.71576 | 4.78642 | 17975 ft | 407 kts | 111° |
| 2026-05-04 13:23 | 50.70570 | 4.82853 | 18553 ft | 414 kts | 111° |
| 2026-05-04 13:23 | 50.69554 | 4.87135 | 19147 ft | 418 kts | 112° |
| 2026-05-04 13:24 | 50.68534 | 4.91449 | 19786 ft | 422 kts | 112° |
| 2026-05-04 13:24 | 50.67505 | 4.95794 | 20426 ft | 425 kts | 112° |
| 2026-05-04 13:24 | 50.66467 | 5.00177 | 21073 ft | 429 kts | 112° |
| 2026-05-04 13:25 | 50.64352 | 5.09070 | 22336 ft | 438 kts | 113° |
| 2026-05-04 13:25 | 50.63276 | 5.13584 | 22915 ft | 442 kts | 114° |
| 2026-05-04 13:25 | 50.62178 | 5.18171 | 22979 ft | 455 kts | 114° |
| 2026-05-04 13:25 | 50.61045 | 5.22889 | 22999 ft | 466 kts | 114° |
| 2026-05-04 13:26 | 50.59896 | 5.27680 | 22988 ft | 468 kts | 114° |
| 2026-05-04 13:26 | 50.58745 | 5.32475 | 22987 ft | 468 kts | 114° |
| 2026-05-04 13:26 | 50.57595 | 5.37257 | 22979 ft | 468 kts | 114° |
| 2026-05-04 13:26 | 50.56441 | 5.42044 | 22983 ft | 467 kts | 114° |
| 2026-05-04 13:27 | 50.55284 | 5.46822 | 22998 ft | 469 kts | 114° |
| 2026-05-04 13:27 | 50.54121 | 5.51621 | 22982 ft | 470 kts | 114° |
| 2026-05-04 13:27 | 50.52955 | 5.56422 | 22966 ft | 470 kts | 114° |
| 2026-05-04 13:27 | 50.51791 | 5.61209 | 22975 ft | 469 kts | 115° |
| 2026-05-04 13:28 | 50.51239 | 5.63534 | 22979 ft | 469 kts | 113° |
| 2026-05-04 13:28 | 50.50252 | 5.68280 | 22983 ft | 471 kts | 110° |
| 2026-05-04 13:28 | 50.49337 | 5.73236 | 23000 ft | 473 kts | 109° |
| 2026-05-04 13:28 | 50.48455 | 5.78221 | 22974 ft | 474 kts | 109° |
| 2026-05-04 13:29 | 50.47581 | 5.83141 | 22975 ft | 473 kts | 109° |
| 2026-05-04 13:29 | 50.46682 | 5.88099 | 22982 ft | 472 kts | 110° |
| 2026-05-04 13:29 | 50.45753 | 5.93108 | 22998 ft | 472 kts | 110° |
| 2026-05-04 13:29 | 50.44839 | 5.97983 | 22986 ft | 472 kts | 110° |
| 2026-05-04 13:30 | 50.43903 | 6.02911 | 22963 ft | 472 kts | 110° |
| 2026-05-04 13:30 | 50.42963 | 6.07841 | 22993 ft | 471 kts | 110° |
| 2026-05-04 13:30 | 50.42024 | 6.12763 | 22991 ft | 472 kts | 110° |
| 2026-05-04 13:30 | 50.41081 | 6.17695 | 22997 ft | 472 kts | 110° |
| 2026-05-04 13:31 | 50.40138 | 6.22627 | 23000 ft | 473 kts | 110° |
| 2026-05-04 13:31 | 50.39191 | 6.27569 | 22991 ft | 474 kts | 110° |
| 2026-05-04 13:31 | 50.38239 | 6.32515 | 22979 ft | 474 kts | 110° |
| 2026-05-04 13:31 | 50.37282 | 6.37455 | 22977 ft | 474 kts | 110° |
| 2026-05-04 13:32 | 50.36431 | 6.42455 | 22981 ft | 476 kts | 105° |
| 2026-05-04 13:32 | 50.35907 | 6.47578 | 22967 ft | 479 kts | 99° |
| 2026-05-04 13:32 | 50.35604 | 6.52778 | 22977 ft | 480 kts | 98° |
| 2026-05-04 13:32 | 50.35321 | 6.57989 | 22982 ft | 481 kts | 98° |
| 2026-05-04 13:33 | 50.35022 | 6.63211 | 22976 ft | 482 kts | 98° |
| 2026-05-04 13:33 | 50.34701 | 6.68431 | 22980 ft | 481 kts | 98° |
| 2026-05-04 13:33 | 50.34366 | 6.73644 | 22985 ft | 481 kts | 98° |
| 2026-05-04 13:33 | 50.34036 | 6.78851 | 22991 ft | 481 kts | 98° |
| 2026-05-04 13:34 | 50.33716 | 6.84055 | 23000 ft | 479 kts | 99° |
| 2026-05-04 13:34 | 50.33024 | 6.89114 | 22997 ft | 472 kts | 114° |
| 2026-05-04 13:34 | 50.31564 | 6.93652 | 23009 ft | 467 kts | 123° |
| 2026-05-04 13:34 | 50.30018 | 6.98137 | 23007 ft | 469 kts | 120° |
| 2026-05-04 13:35 | 50.28606 | 7.02732 | 22947 ft | 468 kts | 118° |
| 2026-05-04 13:35 | 50.25916 | 7.11903 | 21740 ft | 460 kts | 118° |
| 2026-05-04 13:35 | 50.24584 | 7.16424 | 21129 ft | 455 kts | 118° |
| 2026-05-04 13:36 | 50.23261 | 7.20864 | 20661 ft | 446 kts | 118° |
| 2026-05-04 13:36 | 50.21954 | 7.25218 | 20130 ft | 441 kts | 118° |
| 2026-05-04 13:36 | 50.20652 | 7.29536 | 19520 ft | 438 kts | 118° |
| 2026-05-04 13:36 | 50.19371 | 7.33826 | 18949 ft | 435 kts | 116° |
| 2026-05-04 13:37 | 50.18242 | 7.38193 | 18404 ft | 433 kts | 113° |
| 2026-05-04 13:37 | 50.17269 | 7.42614 | 17847 ft | 429 kts | 108° |
| 2026-05-04 13:37 | 50.16681 | 7.47180 | 17240 ft | 429 kts | 99° |
| 2026-05-04 13:37 | 50.16509 | 7.50241 | 16844 ft | 428 kts | 96° |
| 2026-05-04 13:38 | 50.16588 | 7.56424 | 16099 ft | 426 kts | 88° |
| 2026-05-04 13:38 | 50.16813 | 7.61012 | 15557 ft | 422 kts | 88° |
| 2026-05-04 13:38 | 50.17024 | 7.65557 | 15039 ft | 419 kts | 88° |
| 2026-05-04 13:38 | 50.17226 | 7.70058 | 14596 ft | 414 kts | 88° |
| 2026-05-04 13:39 | 50.17421 | 7.74517 | 14165 ft | 409 kts | 89° |
| 2026-05-04 13:39 | 50.17606 | 7.78918 | 13698 ft | 406 kts | 88° |
| 2026-05-04 13:39 | 50.17787 | 7.83297 | 13123 ft | 403 kts | 88° |
| 2026-05-04 13:39 | 50.17965 | 7.87649 | 12607 ft | 400 kts | 89° |
| 2026-05-04 13:40 | 50.18139 | 7.91955 | 12188 ft | 394 kts | 89° |
| 2026-05-04 13:40 | 50.18307 | 7.96162 | 11917 ft | 383 kts | 89° |
| 2026-05-04 13:40 | 50.18469 | 8.00254 | 11645 ft | 373 kts | 89° |
| 2026-05-04 13:40 | 50.18625 | 8.04237 | 11389 ft | 363 kts | 89° |
| 2026-05-04 13:41 | 50.18774 | 8.08082 | 11151 ft | 359 kts | 89° |
| 2026-05-04 13:41 | 50.18923 | 8.11941 | 11059 ft | 354 kts | 89° |
| 2026-05-04 13:41 | 50.19068 | 8.15765 | 11033 ft | 353 kts | 89° |
| 2026-05-04 13:42 | 50.19357 | 8.23467 | 11000 ft | 358 kts | 89° |
| 2026-05-04 13:42 | 50.19501 | 8.27345 | 10988 ft | 358 kts | 89° |
| 2026-05-04 13:42 | 50.19642 | 8.31228 | 10997 ft | 358 kts | 89° |
| 2026-05-04 13:42 | 50.19780 | 8.35111 | 10964 ft | 358 kts | 89° |
| 2026-05-04 13:43 | 50.19921 | 8.38932 | 10958 ft | 347 kts | 89° |
| 2026-05-04 13:43 | 50.20057 | 8.42630 | 10882 ft | 336 kts | 89° |
| 2026-05-04 13:43 | 50.20185 | 8.46218 | 10802 ft | 325 kts | 89° |
| 2026-05-04 13:43 | 50.20308 | 8.49679 | 10669 ft | 315 kts | 89° |
| 2026-05-04 13:44 | 50.20425 | 8.53049 | 10459 ft | 308 kts | 90° |
| 2026-05-04 13:44 | 50.20539 | 8.56367 | 10163 ft | 305 kts | 90° |
| 2026-05-04 13:44 | 50.20652 | 8.59662 | 9777 ft | 305 kts | 90° |
| 2026-05-04 13:44 | 50.20763 | 8.62964 | 9366 ft | 304 kts | 89° |
| 2026-05-04 13:45 | 50.20874 | 8.66252 | 8983 ft | 303 kts | 89° |
| 2026-05-04 13:45 | 50.20983 | 8.69533 | 8595 ft | 303 kts | 89° |
| 2026-05-04 13:45 | 50.21092 | 8.72815 | 8270 ft | 302 kts | 89° |
| 2026-05-04 13:45 | 50.21200 | 8.76080 | 8009 ft | 299 kts | 89° |
| 2026-05-04 13:46 | 50.21306 | 8.79277 | 7809 ft | 292 kts | 89° |
| 2026-05-04 13:46 | 50.21412 | 8.82432 | 7507 ft | 289 kts | 88° |
| 2026-05-04 13:46 | 50.21517 | 8.85548 | 7164 ft | 287 kts | 89° |
| 2026-05-04 13:46 | 50.21619 | 8.88672 | 6799 ft | 288 kts | 88° |
| 2026-05-04 13:47 | 50.21714 | 8.91786 | 6456 ft | 287 kts | 88° |
| 2026-05-04 13:47 | 50.21801 | 8.94888 | 6158 ft | 285 kts | 88° |
| 2026-05-04 13:47 | 50.21807 | 8.97933 | 5865 ft | 276 kts | 101° |
| 2026-05-04 13:47 | 50.21127 | 9.00646 | 5595 ft | 265 kts | 130° |
| 2026-05-04 13:48 | 50.19762 | 9.02400 | 5422 ft | 250 kts | 160° |
| 2026-05-04 13:48 | 50.18125 | 9.02822 | 5288 ft | 231 kts | 192° |
| 2026-05-04 13:48 | 50.16733 | 9.01899 | 5105 ft | 211 kts | 226° |
| 2026-05-04 13:48 | 50.15960 | 9.00118 | 5103 ft | 194 kts | 243° |
| 2026-05-04 13:49 | 50.15368 | 8.98213 | 5037 ft | 196 kts | 246° |
| 2026-05-04 13:49 | 50.14840 | 8.96265 | 4980 ft | 193 kts | 248° |
| 2026-05-04 13:49 | 50.14356 | 8.94330 | 4991 ft | 191 kts | 249° |
| 2026-05-04 13:49 | 50.13887 | 8.92399 | 4991 ft | 190 kts | 249° |
| 2026-05-04 13:50 | 50.13424 | 8.90464 | 4988 ft | 190 kts | 249° |
| 2026-05-04 13:50 | 50.12964 | 8.88534 | 4988 ft | 190 kts | 250° |
| 2026-05-04 13:50 | 50.12502 | 8.86591 | 4984 ft | 191 kts | 250° |
| 2026-05-04 13:50 | 50.12047 | 8.84676 | 4793 ft | 187 kts | 250° |
| 2026-05-04 13:51 | 50.11609 | 8.82837 | 4521 ft | 177 kts | 250° |
| 2026-05-04 13:51 | 50.11192 | 8.81084 | 4280 ft | 169 kts | 249° |
| 2026-05-04 13:51 | 50.10785 | 8.79376 | 4055 ft | 170 kts | 250° |
| 2026-05-04 13:51 | 50.10374 | 8.77646 | 3832 ft | 170 kts | 249° |
| 2026-05-04 13:52 | 50.09516 | 8.74042 | 3319 ft | 185 kts | 249° |
| 2026-05-04 13:52 | 50.09071 | 8.72165 | 3031 ft | 183 kts | 251° |
| 2026-05-04 13:52 | 50.08638 | 8.70353 | 2777 ft | 178 kts | 250° |
| 2026-05-04 13:53 | 50.08208 | 8.68578 | 2507 ft | 165 kts | 250° |
| 2026-05-04 13:53 | 50.07844 | 8.67038 | 2313 ft | 145 kts | 250° |
| 2026-05-04 13:53 | 50.07490 | 8.65550 | 2126 ft | 147 kts | 249° |
| 2026-05-04 13:54 | 50.06774 | 8.62546 | 1710 ft | 147 kts | 248° |
| 2026-05-04 13:54 | 50.06413 | 8.61038 | 1520 ft | 154 kts | 249° |
| 2026-05-04 13:54 | 50.05685 | 8.57980 | 1083 ft | 147 kts | 248° |
| 2026-05-04 13:55 | 50.05338 | 8.56519 | 884 ft | 146 kts | 249° |
| 2026-05-04 13:55 | 50.04607 | 8.53451 | 413 ft | 153 kts | 246° |
| 2026-05-04 13:55 | 50.04244 | 8.51968 | 349 ft | 124 kts | 248° |
| 2026-05-04 13:56 | 50.04026 | 8.51047 | 331 ft | 71 kts | 249° |
| 2026-05-04 13:56 | 50.03912 | 8.50576 | 326 ft | 25 kts | 247° |
| 2026-05-04 13:56 | 50.03702 | 8.50204 | 321 ft | 12 kts | 216° |
| 2026-05-04 13:57 | 50.03637 | 8.50211 | 323 ft | 0 kts | 138° |
| 2026-05-04 13:59 | 50.03626 | 8.50264 | 326 ft | 11 kts | 90° |
| 2026-05-04 13:59 | 50.03657 | 8.50401 | 331 ft | 14 kts | 67° |
| 2026-05-04 13:59 | 50.03723 | 8.50685 | 332 ft | 14 kts | 70° |
| 2026-05-04 14:00 | 50.03755 | 8.50828 | 333 ft | 14 kts | 72° |
| 2026-05-04 14:00 | 50.03722 | 8.51065 | 355 ft | 14 kts | 116° |
| 2026-05-04 14:00 | 50.03679 | 8.51201 | 358 ft | 14 kts | 116° |
| 2026-05-04 14:01 | 50.03636 | 8.51337 | 360 ft | 14 kts | 116° |
| 2026-05-04 14:01 | 50.03594 | 8.51470 | 363 ft | 14 kts | 116° |
| 2026-05-04 14:01 | 50.03514 | 8.51744 | 364 ft | 14 kts | 101° |
| 2026-05-04 14:02 | 50.03520 | 8.51903 | 361 ft | 16 kts | 83° |
| 2026-05-04 14:02 | 50.03531 | 8.52050 | 357 ft | 12 kts | 83° |
| 2026-05-04 14:02 | 50.03540 | 8.52177 | 352 ft | 4 kts | 83° |
| 2026-05-04 14:02 | 50.03541 | 8.52182 | 352 ft | 0 kts | 81° |
| 2026-05-04 14:04 | 50.03541 | 8.52183 | 352 ft | 1 kts | 81° |
| 2026-05-04 14:04 | 50.03544 | 8.52209 | 350 ft | 4 kts | 81° |
| 2026-05-04 14:05 | 50.03559 | 8.52336 | 345 ft | 7 kts | 74° |
| 2026-05-04 14:05 | 50.03576 | 8.52411 | 350 ft | 7 kts | 70° |
| 2026-05-04 14:05 | 50.03591 | 8.52487 | 351 ft | 7 kts | 79° |
| 2026-05-04 14:06 | 50.03594 | 8.52567 | 352 ft | 7 kts | 88° |
| 2026-05-04 14:06 | 50.03600 | 8.52645 | 350 ft | 8 kts | 71° |
| 2026-05-04 14:06 | 50.03618 | 8.52722 | 350 ft | 8 kts | 70° |
| 2026-05-04 14:06 | 50.03639 | 8.52797 | 354 ft | 8 kts | 53° |
| 2026-05-04 14:07 | 50.03689 | 8.52802 | 348 ft | 8 kts | 339° |
| 2026-05-04 14:07 | 50.03730 | 8.52778 | 358 ft | 0 kts | 340° |
| 2026-05-04 14:07 | 50.03731 | 8.52778 | 358 ft | 0 kts | 340° |
| 2026-05-04 14:07 | 50.03733 | 8.52776 | 358 ft | 1 kts | 340° |
| 2026-05-04 14:08 | 50.03735 | 8.52775 | 358 ft | 0 kts | 340° |